Time;durP1;ratioP1;P1;durP2;ratioP2;P2;SDS_P1;SDS_P2;PMS_P1;PMS_P2;Temp;Humidity;BMP_temperature;BMP_pressure;BME280_temperature;BME280_humidity;BME280_pressure;Samples;Min_cycle;Max_cycle;Signal;HPM_P1;HPM_P2
2022/10/07 00:00:20;;;;;;;11.38;7.00;;;;;;;;;;5077286;28;20125;-72
2022/10/07 00:02:46;;;;;;;11.98;7.38;;;;;;;;;;5077455;28;20040;-72
2022/10/07 00:05:12;;;;;;;7.93;6.60;;;;;;;;;;5077180;28;20055;-72
2022/10/07 00:07:39;;;;;;;12.82;7.00;;;;;;;;;;5077094;28;20072;-72
2022/10/07 00:10:05;;;;;;;9.15;7.00;;;;;;;;;;5077080;28;20051;-72
2022/10/07 00:12:32;;;;;;;7.05;6.40;;;;;;;;;;5076932;28;20086;-72
2022/10/07 00:14:58;;;;;;;8.80;6.35;;;;;;;;;;5075569;28;20032;-72
2022/10/07 00:17:24;;;;;;;7.80;6.57;;;;;;;;;;5076976;28;20051;-72
2022/10/07 00:19:50;;;;;;;7.53;6.72;;;;;;;;;;5076565;28;20046;-72
2022/10/07 00:22:16;;;;;;;11.52;7.82;;;;;;;;;;5076355;28;20379;-72
2022/10/07 00:24:42;;;;;;;8.30;7.40;;;;;;;;;;5076857;28;20043;-72
2022/10/07 00:27:09;;;;;;;11.02;7.40;;;;;;;;;;5076691;28;20045;-72
2022/10/07 00:29:35;;;;;;;10.05;7.15;;;;;;;;;;5076292;28;20063;-72
2022/10/07 00:32:01;;;;;;;9.27;7.30;;;;;;;;;;5076664;28;20039;-72
2022/10/07 00:34:27;;;;;;;13.13;7.07;;;;;;;;;;5076609;28;20036;-72
2022/10/07 00:36:53;;;;;;;9.40;6.82;;;;;;;;;;5076309;28;20098;-72
2022/10/07 00:39:19;;;;;;;10.05;7.10;;;;;;;;;;5076233;28;20487;-72
2022/10/07 00:41:50;;;;;;;8.40;7.30;;;;;;;;;;5076180;28;20036;-72
2022/10/07 00:44:32;;;;;;;9.95;6.97;;;;;;;;;;5075806;28;20391;-72
2022/10/07 00:46:59;;;;;;;9.15;6.82;;;;;;;;;;5076249;28;20032;-72
2022/10/07 00:49:29;;;;;;;9.80;7.20;;;;;;;;;;5076329;28;20036;-72
2022/10/07 00:51:56;;;;;;;9.88;7.30;;;;;;;;;;5076206;28;20032;-72
2022/10/07 00:54:22;;;;;;;8.05;6.57;;;;;;;;;;5075890;28;20119;-73
2022/10/07 00:56:50;;;;;;;11.00;7.05;;;;;;;;;;5076512;28;20036;-72
2022/10/07 00:59:17;;;;;;;8.80;6.95;;;;;;;;;;5075958;28;20047;-72
2022/10/07 01:01:45;;;;;;;8.00;6.85;;;;;;;;;;5076335;28;20036;-72
2022/10/07 01:04:13;;;;;;;9.85;6.82;;;;;;;;;;5076160;28;20044;-72
2022/10/07 01:06:39;;;;;;;8.48;6.97;;;;;;;;;;5075712;28;20075;-72
2022/10/07 01:09:06;;;;;;;11.75;7.10;;;;;;;;;;5075515;28;20082;-73
2022/10/07 01:11:49;;;;;;;10.63;7.32;;;;;;;;;;5075875;28;20040;-72
2022/10/07 01:14:28;;;;;;;9.38;6.88;;;;;;;;;;5075707;28;20045;-72
2022/10/07 01:16:57;;;;;;;9.35;7.00;;;;;;;;;;5076351;28;20128;-72
2022/10/07 01:19:30;;;;;;;9.38;6.70;;;;;;;;;;5075521;28;20048;-72
2022/10/07 01:22:06;;;;;;;7.68;6.65;;;;;;;;;;5075592;28;20029;-72
2022/10/07 01:24:45;;;;;;;12.40;7.20;;;;;;;;;;5075252;28;20048;-72
2022/10/07 01:27:25;;;;;;;10.23;6.70;;;;;;;;;;5075988;28;20036;-72
2022/10/07 01:29:57;;;;;;;7.95;6.68;;;;;;;;;;5075249;28;20040;-72
2022/10/07 01:32:35;;;;;;;10.07;7.07;;;;;;;;;;5076123;28;20079;-72
2022/10/07 01:35:04;;;;;;;11.88;7.03;;;;;;;;;;5075077;28;20116;-72
2022/10/07 01:37:34;;;;;;;9.85;6.72;;;;;;;;;;5075012;28;20036;-73
2022/10/07 01:40:06;;;;;;;11.88;7.82;;;;;;;;;;5075355;28;20123;-72
2022/10/07 01:42:33;;;;;;;9.43;6.43;;;;;;;;;;5074842;28;20047;-72
2022/10/07 01:44:59;;;;;;;6.95;6.25;;;;;;;;;;5074983;28;20036;-72
2022/10/07 01:47:25;;;;;;;21.75;7.07;;;;;;;;;;5075401;28;20458;-72
2022/10/07 01:49:52;;;;;;;9.50;6.85;;;;;;;;;;5074795;28;20037;-73
2022/10/07 01:52:25;;;;;;;7.88;6.50;;;;;;;;;;5075407;28;20202;-72
2022/10/07 01:55:00;;;;;;;8.23;6.22;;;;;;;;;;5074812;28;20052;-73
2022/10/07 01:57:29;;;;;;;9.15;7.32;;;;;;;;;;5075138;28;20123;-72
2022/10/07 01:59:56;;;;;;;7.78;6.60;;;;;;;;;;5074950;28;20033;-73
2022/10/07 02:02:32;;;;;;;7.90;6.90;;;;;;;;;;5075093;28;20040;-73
2022/10/07 02:05:22;;;;;;;10.02;6.88;;;;;;;;;;5074777;28;20050;-73
2022/10/07 02:07:50;;;;;;;7.25;6.50;;;;;;;;;;5069030;28;20060;-72
2022/10/07 02:10:34;;;;;;;7.85;6.95;;;;;;;;;;5075196;28;20090;-72
2022/10/07 02:13:06;;;;;;;10.52;6.57;;;;;;;;;;5075022;28;20071;-73
2022/10/07 02:15:36;;;;;;;9.05;6.97;;;;;;;;;;5075432;28;20041;-72
2022/10/07 02:18:06;;;;;;;7.90;6.45;;;;;;;;;;5074856;28;20044;-73
2022/10/07 02:20:34;;;;;;;8.98;6.88;;;;;;;;;;5074838;28;20111;-72
2022/10/07 02:23:01;;;;;;;9.18;7.10;;;;;;;;;;5074779;28;20032;-72
2022/10/07 02:25:31;;;;;;;8.40;7.10;;;;;;;;;;5074802;28;20040;-73
2022/10/07 02:27:57;;;;;;;8.90;7.20;;;;;;;;;;5074389;28;20040;-72
2022/10/07 02:30:23;;;;;;;8.93;6.88;;;;;;;;;;5074702;28;20048;-72
2022/10/07 02:32:52;;;;;;;11.98;7.90;;;;;;;;;;5075275;28;20040;-72
2022/10/07 02:35:27;;;;;;;7.68;6.72;;;;;;;;;;5074629;28;20119;-72
2022/10/07 02:37:55;;;;;;;8.45;7.20;;;;;;;;;;5077510;28;20040;-73
2022/10/07 02:40:22;;;;;;;9.68;6.82;;;;;;;;;;5078888;28;20119;-72
2022/10/07 02:42:51;;;;;;;9.68;6.55;;;;;;;;;;5078046;28;20411;-72
2022/10/07 02:45:38;;;;;;;8.55;6.75;;;;;;;;;;5078675;28;20472;-72
2022/10/07 02:48:24;;;;;;;12.27;6.82;;;;;;;;;;5078052;28;20048;-72
2022/10/07 02:50:54;;;;;;;8.55;6.97;;;;;;;;;;5078781;28;20040;-72
2022/10/07 02:53:21;;;;;;;7.50;6.70;;;;;;;;;;5078250;28;20048;-72
2022/10/07 02:55:49;;;;;;;7.25;6.22;;;;;;;;;;5078760;28;20136;-72
2022/10/07 02:58:16;;;;;;;9.20;6.63;;;;;;;;;;5077987;28;20499;-72
2022/10/07 03:00:45;;;;;;;8.82;6.38;;;;;;;;;;5078412;28;20047;-72
2022/10/07 03:03:11;;;;;;;9.43;7.22;;;;;;;;;;5078825;28;20106;-72
2022/10/07 03:05:38;;;;;;;8.13;6.30;;;;;;;;;;5078330;28;20048;-73
2022/10/07 03:08:06;;;;;;;8.80;6.28;;;;;;;;;;5077889;28;20067;-73
2022/10/07 03:10:32;;;;;;;7.63;6.30;;;;;;;;;;5077936;28;20094;-72
2022/10/07 03:12:59;;;;;;;8.68;5.47;;;;;;;;;;5077985;28;20097;-72
2022/10/07 03:15:26;;;;;;;8.80;5.28;;;;;;;;;;5078301;28;20036;-72
2022/10/07 03:17:52;;;;;;;7.22;5.38;;;;;;;;;;5077686;28;20068;-72
2022/10/07 03:20:18;;;;;;;7.13;5.20;;;;;;;;;;5077939;28;20048;-72
2022/10/07 03:22:44;;;;;;;6.20;5.18;;;;;;;;;;5079084;28;20037;-73
2022/10/07 03:25:11;;;;;;;6.15;5.03;;;;;;;;;;5077663;28;20093;-72
2022/10/07 03:27:38;;;;;;;6.80;5.13;;;;;;;;;;5077644;28;20047;-72
2022/10/07 03:30:05;;;;;;;7.28;5.43;;;;;;;;;;5077832;28;20139;-72
2022/10/07 03:32:31;;;;;;;7.00;5.03;;;;;;;;;;5078114;28;20365;-72
2022/10/07 03:34:57;;;;;;;5.93;5.32;;;;;;;;;;5077658;28;20067;-72
2022/10/07 03:37:24;;;;;;;5.22;4.72;;;;;;;;;;5077415;28;20119;-72
2022/10/07 03:39:52;;;;;;;6.55;5.45;;;;;;;;;;5077694;28;20068;-72
2022/10/07 03:42:19;;;;;;;8.45;5.93;;;;;;;;;;5077836;28;20041;-72
2022/10/07 03:44:48;;;;;;;6.03;5.40;;;;;;;;;;5077233;28;20044;-72
2022/10/07 03:47:16;;;;;;;7.10;5.18;;;;;;;;;;5078201;28;20044;-72
2022/10/07 03:49:42;;;;;;;8.77;5.15;;;;;;;;;;5077319;28;20039;-72
2022/10/07 03:52:08;;;;;;;6.32;4.95;;;;;;;;;;5077694;28;20036;-72
2022/10/07 03:54:34;;;;;;;10.48;5.38;;;;;;;;;;5077156;28;20048;-72
2022/10/07 03:57:01;;;;;;;6.65;5.13;;;;;;;;;;5077396;28;20113;-72
2022/10/07 03:59:27;;;;;;;7.78;5.78;;;;;;;;;;5076910;28;20050;-72
2022/10/07 04:01:53;;;;;;;8.25;6.05;;;;;;;;;;5077502;28;20070;-72
2022/10/07 04:04:19;;;;;;;8.88;5.60;;;;;;;;;;5076783;28;20447;-72
2022/10/07 04:06:45;;;;;;;8.52;5.70;;;;;;;;;;5076536;28;20036;-72
2022/10/07 04:09:12;;;;;;;8.25;5.60;;;;;;;;;;5077154;28;20052;-72
2022/10/07 04:11:40;;;;;;;8.15;5.63;;;;;;;;;;5096653;28;20115;-73
2022/10/07 04:14:06;;;;;;;9.07;5.55;;;;;;;;;;5086940;28;20075;-72
2022/10/07 04:16:33;;;;;;;6.60;5.55;;;;;;;;;;5075039;28;20119;-72
2022/10/07 04:18:59;;;;;;;6.53;5.50;;;;;;;;;;5074956;28;20511;-73
2022/10/07 04:21:25;;;;;;;10.10;5.70;;;;;;;;;;5074724;28;20040;-72
2022/10/07 04:23:51;;;;;;;9.45;5.53;;;;;;;;;;5074774;28;20044;-72
2022/10/07 04:26:17;;;;;;;6.93;5.53;;;;;;;;;;5074865;28;20040;-72
2022/10/07 04:28:43;;;;;;;8.27;5.78;;;;;;;;;;5074624;28;20056;-73
2022/10/07 04:31:10;;;;;;;8.50;5.22;;;;;;;;;;5074548;28;20483;-73
2022/10/07 04:33:40;;;;;;;8.70;5.38;;;;;;;;;;5075048;28;20037;-73
2022/10/07 04:36:08;;;;;;;8.15;6.30;;;;;;;;;;5076602;28;20082;-73
2022/10/07 04:38:34;;;;;;;6.82;5.72;;;;;;;;;;5076305;28;20063;-73
2022/10/07 04:41:05;;;;;;;8.02;5.80;;;;;;;;;;5074915;28;20086;-72
2022/10/07 04:43:32;;;;;;;6.78;5.40;;;;;;;;;;5075871;28;20044;-73
2022/10/07 04:46:06;;;;;;;8.13;5.13;;;;;;;;;;5076028;28;20094;-73
2022/10/07 04:48:33;;;;;;;6.35;5.72;;;;;;;;;;5075664;28;20055;-73
2022/10/07 04:51:03;;;;;;;7.75;5.50;;;;;;;;;;5075982;28;20044;-73
2022/10/07 04:53:30;;;;;;;8.07;5.82;;;;;;;;;;5076205;28;20060;-73
2022/10/07 04:55:56;;;;;;;6.75;5.25;;;;;;;;;;5075764;28;20056;-73
2022/10/07 04:58:23;;;;;;;9.13;5.82;;;;;;;;;;5075697;28;20063;-73
2022/10/07 05:00:50;;;;;;;11.68;5.93;;;;;;;;;;5075287;28;20051;-73
2022/10/07 05:03:17;;;;;;;7.63;5.32;;;;;;;;;;5075697;28;20110;-73
2022/10/07 05:05:44;;;;;;;8.32;6.07;;;;;;;;;;5075901;28;20056;-73
2022/10/07 05:08:11;;;;;;;9.43;5.95;;;;;;;;;;5075562;28;20399;-73
2022/10/07 05:10:38;;;;;;;9.18;5.97;;;;;;;;;;5075920;28;20063;-73
2022/10/07 05:13:05;;;;;;;12.25;6.38;;;;;;;;;;5075771;28;20040;-73
2022/10/07 05:15:31;;;;;;;7.65;5.78;;;;;;;;;;5075839;28;20094;-73
2022/10/07 05:17:57;;;;;;;9.38;6.97;;;;;;;;;;5074407;28;20074;-73
2022/10/07 05:20:23;;;;;;;7.68;6.57;;;;;;;;;;5074376;28;20089;-73
2022/10/07 05:22:49;;;;;;;6.78;5.85;;;;;;;;;;5074761;28;20040;-73
2022/10/07 05:25:15;;;;;;;8.98;5.72;;;;;;;;;;5074934;28;20040;-73
2022/10/07 05:27:42;;;;;;;15.40;6.40;;;;;;;;;;5075533;28;20081;-73
2022/10/07 05:30:08;;;;;;;6.40;5.80;;;;;;;;;;5075155;28;20408;-73
2022/10/07 05:32:34;;;;;;;13.63;6.10;;;;;;;;;;5075131;28;20527;-73
2022/10/07 05:35:01;;;;;;;8.98;6.20;;;;;;;;;;5074093;28;20033;-74
2022/10/07 05:37:27;;;;;;;8.73;6.00;;;;;;;;;;5075046;28;20051;-73
2022/10/07 05:39:53;;;;;;;11.60;5.88;;;;;;;;;;5074784;28;20044;-73
2022/10/07 05:42:19;;;;;;;10.00;6.47;;;;;;;;;;5075318;28;20048;-72
2022/10/07 05:44:45;;;;;;;7.13;5.43;;;;;;;;;;5074400;28;20048;-73
2022/10/07 05:47:12;;;;;;;7.75;5.30;;;;;;;;;;5074385;28;20202;-73
2022/10/07 05:49:40;;;;;;;10.15;6.10;;;;;;;;;;5074525;28;20078;-73
2022/10/07 05:52:06;;;;;;;10.38;5.65;;;;;;;;;;5074687;28;20431;-73
2022/10/07 05:54:32;;;;;;;7.68;5.57;;;;;;;;;;5074975;28;20132;-75
2022/10/07 05:56:59;;;;;;;8.73;5.18;;;;;;;;;;5073722;28;20127;-73
2022/10/07 05:59:25;;;;;;;8.63;5.70;;;;;;;;;;5073290;28;20036;-73
2022/10/07 06:01:56;;;;;;;10.52;5.97;;;;;;;;;;5073927;28;20033;-72
2022/10/07 06:04:22;;;;;;;7.13;5.55;;;;;;;;;;5074082;28;20036;-72
2022/10/07 06:06:48;;;;;;;6.47;5.53;;;;;;;;;;5074555;28;20037;-72
2022/10/07 06:14:44;;;;;;;7.75;6.35;;;;;;;;;;5074137;28;20379;-72
2022/10/07 06:17:10;;;;;;;7.70;5.40;;;;;;;;;;5074662;28;20040;-73
2022/10/07 06:19:36;;;;;;;6.53;5.53;;;;;;;;;;5074626;28;20392;-73
2022/10/07 06:22:03;;;;;;;5.90;5.30;;;;;;;;;;5074738;28;20043;-73
2022/10/07 06:24:29;;;;;;;8.23;5.15;;;;;;;;;;5074518;28;20041;-72
2022/10/07 06:26:55;;;;;;;10.43;5.13;;;;;;;;;;5074657;28;20553;-71
2022/10/07 06:29:21;;;;;;;6.95;4.95;;;;;;;;;;5074494;28;20042;-71
2022/10/07 06:31:48;;;;;;;5.88;5.00;;;;;;;;;;5075277;28;20075;-72
2022/10/07 06:34:14;;;;;;;9.50;5.40;;;;;;;;;;5074965;28;20056;-72
2022/10/07 06:36:40;;;;;;;9.73;5.13;;;;;;;;;;5074723;28;20036;-72
2022/10/07 06:39:06;;;;;;;5.05;4.40;;;;;;;;;;5074576;28;20036;-72
2022/10/07 06:41:32;;;;;;;9.80;5.40;;;;;;;;;;5074340;28;20384;-72
2022/10/07 06:43:59;;;;;;;7.45;5.28;;;;;;;;;;5074737;28;20049;-72
2022/10/07 06:46:26;;;;;;;8.38;5.03;;;;;;;;;;5074511;28;20455;-72
2022/10/07 06:48:52;;;;;;;8.90;5.15;;;;;;;;;;5074172;28;20472;-72
2022/10/07 06:51:19;;;;;;;8.15;4.88;;;;;;;;;;5074198;28;20039;-72
2022/10/07 06:53:45;;;;;;;5.40;4.78;;;;;;;;;;5074593;28;20411;-72
2022/10/07 06:56:13;;;;;;;8.50;5.22;;;;;;;;;;5073986;28;20505;-72
2022/10/07 06:58:39;;;;;;;10.73;5.05;;;;;;;;;;5073940;28;20036;-72
2022/10/07 07:01:05;;;;;;;7.55;4.82;;;;;;;;;;5073852;28;20515;-72
2022/10/07 07:03:31;;;;;;;5.15;4.68;;;;;;;;;;5074053;28;20044;-72
2022/10/07 07:05:58;;;;;;;9.32;5.00;;;;;;;;;;5074116;28;20045;-72
2022/10/07 07:08:30;;;;;;;8.07;5.40;;;;;;;;;;5073759;28;20045;-72
2022/10/07 07:11:01;;;;;;;7.97;4.30;;;;;;;;;;5074649;28;20052;-72
2022/10/07 07:13:27;;;;;;;;;;;;;;;;;;5074446;28;20067;-72
2022/10/07 07:15:57;;;;;;;7.47;4.78;;;;;;;;;;5073774;28;20355;-72
2022/10/07 07:18:24;;;;;;;8.20;4.97;;;;;;;;;;5073707;28;20040;-72
2022/10/07 07:20:50;;;;;;;7.25;4.63;;;;;;;;;;5073981;28;20036;-72
2022/10/07 07:23:17;;;;;;;8.48;4.95;;;;;;;;;;5075789;28;20041;-72
2022/10/07 07:25:44;;;;;;;6.88;4.55;;;;;;;;;;5078235;28;20044;-72
2022/10/07 07:28:11;;;;;;;6.97;4.50;;;;;;;;;;5077493;28;20503;-72
2022/10/07 07:30:38;;;;;;;7.90;4.07;;;;;;;;;;5077265;28;20036;-72
2022/10/07 07:33:04;;;;;;;5.95;4.05;;;;;;;;;;5077720;28;20094;-72
2022/10/07 07:35:31;;;;;;;6.50;4.00;;;;;;;;;;5077500;28;20040;-72
2022/10/07 07:37:58;;;;;;;6.63;3.75;;;;;;;;;;5077361;28;20495;-72
2022/10/07 07:40:25;;;;;;;9.60;4.18;;;;;;;;;;5077080;28;20097;-72
2022/10/07 07:42:53;;;;;;;7.20;4.20;;;;;;;;;;5077708;28;20036;-72
2022/10/07 07:45:20;;;;;;;6.63;4.20;;;;;;;;;;5076942;28;20032;-72
2022/10/07 07:47:48;;;;;;;8.18;4.15;;;;;;;;;;5077110;28;20045;-72
2022/10/07 07:50:15;;;;;;;8.98;4.22;;;;;;;;;;5077105;28;20039;-72
2022/10/07 07:52:41;;;;;;;9.80;4.32;;;;;;;;;;5077796;28;20097;-72
2022/10/07 07:55:08;;;;;;;9.27;4.25;;;;;;;;;;5076609;28;20052;-72
2022/10/07 07:57:34;;;;;;;7.60;4.18;;;;;;;;;;5076653;28;20483;-72
2022/10/07 08:00:00;;;;;;;7.90;4.40;;;;;;;;;;5076750;28;20044;-72
2022/10/07 08:02:27;;;;;;;7.68;4.53;;;;;;;;;;5076997;28;20044;-72
2022/10/07 08:04:53;;;;;;;8.73;4.22;;;;;;;;;;5076599;28;20032;-72
2022/10/07 08:07:19;;;;;;;14.40;4.53;;;;;;;;;;5076544;28;20093;-72
2022/10/07 08:09:46;;;;;;;8.55;4.03;;;;;;;;;;5076567;28;20082;-72
2022/10/07 08:12:13;;;;;;;7.70;4.22;;;;;;;;;;5076569;28;20086;-72
2022/10/07 08:14:40;;;;;;;8.75;4.25;;;;;;;;;;5076687;28;20131;-72
2022/10/07 08:17:06;;;;;;;12.27;4.20;;;;;;;;;;5077329;28;20087;-72
2022/10/07 08:19:32;;;;;;;8.10;4.00;;;;;;;;;;5076737;28;20040;-72
2022/10/07 08:21:58;;;;;;;12.38;4.90;;;;;;;;;;5076894;28;20039;-72
2022/10/07 08:24:24;;;;;;;9.75;4.35;;;;;;;;;;5076874;28;20036;-72
2022/10/07 08:26:52;;;;;;;6.40;4.18;;;;;;;;;;5076522;28;20060;-72
2022/10/07 08:29:19;;;;;;;9.07;4.13;;;;;;;;;;5075955;28;20055;-72
2022/10/07 08:31:46;;;;;;;5.78;3.75;;;;;;;;;;5076369;28;20032;-72
2022/10/07 08:34:12;;;;;;;10.70;3.95;;;;;;;;;;5076040;28;20577;-72
2022/10/07 08:36:39;;;;;;;9.13;3.88;;;;;;;;;;5076072;28;20041;-72
2022/10/07 08:39:06;;;;;;;10.50;5.03;;;;;;;;;;5076299;28;20119;-72
2022/10/07 08:41:50;;;;;;;9.73;3.47;;;;;;;;;;5076557;28;20037;-72
2022/10/07 08:44:25;;;;;;;8.43;3.75;;;;;;;;;;5076233;28;20042;-72
2022/10/07 08:46:55;;;;;;;11.50;3.88;;;;;;;;;;5075838;28;20038;-72
2022/10/07 08:49:27;;;;;;;7.57;3.70;;;;;;;;;;5076087;28;20045;-72
2022/10/07 08:51:58;;;;;;;7.15;4.00;;;;;;;;;;5076346;28;20040;-72
2022/10/07 08:54:29;;;;;;;9.03;3.47;;;;;;;;;;5075606;28;20123;-72
2022/10/07 08:56:58;;;;;;;10.52;3.80;;;;;;;;;;5076566;28;20255;-72
2022/10/07 08:59:24;;;;;;;8.15;3.60;;;;;;;;;;5075768;28;20036;-72
2022/10/07 09:01:53;;;;;;;7.63;3.30;;;;;;;;;;5076429;28;20036;-72
2022/10/07 09:04:22;;;;;;;7.60;3.72;;;;;;;;;;5075970;28;20039;-72
2022/10/07 09:06:57;;;;;;;7.03;3.45;;;;;;;;;;5076034;28;20127;-72
2022/10/07 09:09:28;;;;;;;5.00;3.15;;;;;;;;;;5075822;28;20052;-72
2022/10/07 09:11:55;;;;;;;10.32;3.30;;;;;;;;;;5076310;28;20079;-72
2022/10/07 09:14:27;;;;;;;6.90;3.25;;;;;;;;;;5075070;28;20044;-72
2022/10/07 09:16:55;;;;;;;6.72;3.35;;;;;;;;;;5075264;28;20047;-72
2022/10/07 09:19:27;;;;;;;11.35;3.78;;;;;;;;;;5075215;28;20448;-72
2022/10/07 09:21:57;;;;;;;5.63;3.30;;;;;;;;;;5075382;28;20036;-72
2022/10/07 09:24:24;;;;;;;5.90;3.20;;;;;;;;;;5075243;28;20051;-72
2022/10/07 09:26:54;;;;;;;7.30;2.90;;;;;;;;;;5075499;28;20085;-72
2022/10/07 09:29:21;;;;;;;9.30;2.90;;;;;;;;;;5075006;28;20040;-72
2022/10/07 09:31:48;;;;;;;7.75;2.72;;;;;;;;;;5075531;28;20097;-72
2022/10/07 09:34:24;;;;;;;7.03;3.25;;;;;;;;;;5075469;28;20047;-72
2022/10/07 09:37:09;;;;;;;8.55;2.50;;;;;;;;;;5074878;28;20572;-72
2022/10/07 09:39:36;;;;;;;5.00;2.53;;;;;;;;;;5075049;28;20036;-72
2022/10/07 09:42:03;;;;;;;10.15;2.92;;;;;;;;;;5074796;28;20040;-72
2022/10/07 09:44:29;;;;;;;4.35;2.63;;;;;;;;;;5074585;28;20051;-72
2022/10/07 09:46:58;;;;;;;6.70;2.90;;;;;;;;;;5074878;28;20042;-72
2022/10/07 09:49:27;;;;;;;5.78;2.47;;;;;;;;;;5075429;28;20122;-72
2022/10/07 09:52:00;;;;;;;7.82;2.72;;;;;;;;;;5074637;28;20582;-72
2022/10/07 09:54:26;;;;;;;5.57;2.30;;;;;;;;;;5074872;28;20101;-72
2022/10/07 09:56:57;;;;;;;4.75;2.35;;;;;;;;;;5075763;28;20632;-72
2022/10/07 09:59:26;;;;;;;7.60;2.50;;;;;;;;;;5074716;28;20140;-72
2022/10/07 10:02:04;;;;;;;5.43;2.40;;;;;;;;;;5074796;28;20036;-72
2022/10/07 10:04:32;;;;;;;6.97;2.30;;;;;;;;;;5074915;28;20128;-72
2022/10/07 10:07:01;;;;;;;7.93;2.30;;;;;;;;;;5074963;28;20032;-72
2022/10/07 10:09:27;;;;;;;7.35;2.80;;;;;;;;;;5075009;28;20058;-72
2022/10/07 10:12:02;;;;;;;6.05;2.30;;;;;;;;;;5074691;28;20072;-72
2022/10/07 10:14:48;;;;;;;5.70;2.53;;;;;;;;;;5074992;28;20048;-72
2022/10/07 10:17:22;;;;;;;4.75;2.22;;;;;;;;;;5067410;28;20090;-72
2022/10/07 10:19:48;;;;;;;6.03;2.28;;;;;;;;;;5074567;28;20044;-72
2022/10/07 10:22:25;;;;;;;5.43;2.20;;;;;;;;;;5074842;28;20479;-72
2022/10/07 10:27:43;;;;;;;6.10;2.05;;;;;;;;;;5074022;28;20062;-72
2022/10/07 10:30:13;;;;;;;4.75;2.30;;;;;;;;;;5074729;28;20550;-72
2022/10/07 10:32:39;;;;;;;2.63;1.75;;;;;;;;;;5075014;28;20063;-72
2022/10/07 10:35:17;;;;;;;5.75;2.20;;;;;;;;;;5074393;28;20503;-72
2022/10/07 10:37:56;;;;;;;8.13;2.25;;;;;;;;;;5074944;28;20079;-72
2022/10/07 10:40:26;;;;;;;8.38;2.45;;;;;;;;;;5075000;28;20080;-72
2022/10/07 10:43:02;;;;;;;6.90;2.65;;;;;;;;;;5074043;28;20446;-72
2022/10/07 10:45:34;;;;;;;6.13;2.28;;;;;;;;;;5074663;28;20484;-72
2022/10/07 10:48:15;;;;;;;6.75;2.30;;;;;;;;;;5074281;28;20052;-72
2022/10/07 10:50:41;;;;;;;7.32;2.30;;;;;;;;;;5075103;28;20072;-72
2022/10/07 10:53:28;;;;;;;5.88;2.00;;;;;;;;;;5074584;28;20040;-72
2022/10/07 10:56:13;;;;;;;3.83;1.92;;;;;;;;;;5074523;28;20049;-72
2022/10/07 10:58:59;;;;;;;4.82;1.35;;;;;;;;;;5076406;28;20072;-72
2022/10/07 11:01:31;;;;;;;4.07;1.48;;;;;;;;;;5078819;28;20115;-72
2022/10/07 11:03:57;;;;;;;4.32;1.40;;;;;;;;;;5078360;28;20055;-72
2022/10/07 11:06:27;;;;;;;2.08;1.40;;;;;;;;;;5078416;28;20045;-72
2022/10/07 11:08:53;;;;;;;4.80;1.52;;;;;;;;;;5078151;28;20131;-73
2022/10/07 11:11:21;;;;;;;5.38;1.40;;;;;;;;;;5078213;28;20032;-73
2022/10/07 11:13:56;;;;;;;6.80;1.50;;;;;;;;;;5077730;28;20115;-72
2022/10/07 11:16:22;;;;;;;5.25;1.67;;;;;;;;;;5078611;28;20043;-72
2022/10/07 11:18:55;;;;;;;3.45;1.33;;;;;;;;;;5078093;28;20045;-72
2022/10/07 11:21:38;;;;;;;6.70;1.73;;;;;;;;;;5078184;28;20036;-72
2022/10/07 11:24:17;;;;;;;6.10;1.42;;;;;;;;;;5077706;28;20487;-72
2022/10/07 11:26:43;;;;;;;5.05;1.40;;;;;;;;;;5077615;28;20040;-72
2022/10/07 11:29:19;;;;;;;6.40;2.00;;;;;;;;;;5077741;28;20048;-73
2022/10/07 11:31:49;;;;;;;3.42;1.80;;;;;;;;;;5078196;28;20048;-73
2022/10/07 11:34:17;;;;;;;2.47;1.70;;;;;;;;;;5078016;28;20048;-73
2022/10/07 11:36:47;;;;;;;8.50;1.98;;;;;;;;;;5077723;28;20131;-73
2022/10/07 11:39:13;;;;;;;4.70;1.60;;;;;;;;;;5077782;28;20127;-73
2022/10/07 11:41:45;;;;;;;4.70;1.63;;;;;;;;;;5078249;28;20471;-73
2022/10/07 11:44:17;;;;;;;5.20;2.05;;;;;;;;;;5077592;28;20036;-73
2022/10/07 11:46:45;;;;;;;5.70;1.60;;;;;;;;;;5077945;28;20048;-73
2022/10/07 11:49:11;;;;;;;4.95;1.83;;;;;;;;;;5077756;28;20047;-73
2022/10/07 11:51:49;;;;;;;5.68;2.13;;;;;;;;;;5077745;28;20371;-73
2022/10/07 11:54:17;;;;;;;5.45;1.85;;;;;;;;;;5077233;28;20041;-73
2022/10/07 11:56:48;;;;;;;8.85;1.60;;;;;;;;;;5077746;28;20491;-73
2022/10/07 11:59:33;;;;;;;6.22;1.90;;;;;;;;;;5077004;28;20044;-73
2022/10/07 12:02:00;;;;;;;5.40;1.80;;;;;;;;;;5077059;28;20507;-73
2022/10/07 12:04:29;;;;;;;4.78;1.35;;;;;;;;;;5077220;28;20051;-73
2022/10/07 12:07:14;;;;;;;4.57;2.15;;;;;;;;;;5076936;28;20032;-73
2022/10/07 12:09:59;;;;;;;8.07;1.80;;;;;;;;;;5075353;28;20055;-73
2022/10/07 12:12:25;;;;;;;4.85;1.70;;;;;;;;;;5077196;28;20040;-73
2022/10/07 12:14:59;;;;;;;5.57;1.60;;;;;;;;;;5076675;28;20047;-72
2022/10/07 12:17:27;;;;;;;6.35;1.35;;;;;;;;;;5076726;28;20041;-73
2022/10/07 12:20:12;;;;;;;6.13;2.08;;;;;;;;;;5076708;28;20044;-73
2022/10/07 12:22:38;;;;;;;5.20;1.67;;;;;;;;;;5076792;28;20036;-73
2022/10/07 12:25:30;;;;;;;13.57;2.20;;;;;;;;;;5076340;28;20032;-73
2022/10/07 12:27:57;;;;;;;6.72;1.60;;;;;;;;;;5076896;28;20055;-73
2022/10/07 12:30:49;;;;;;;11.95;2.08;;;;;;;;;;5076144;28;20040;-73
2022/10/07 12:33:25;;;;;;;7.55;1.85;;;;;;;;;;5076122;28;20039;-73
2022/10/07 12:35:51;;;;;;;6.03;1.77;;;;;;;;;;5076131;28;20503;-73
2022/10/07 12:38:24;;;;;;;4.63;1.67;;;;;;;;;;5076291;28;20041;-73
2022/10/07 12:41:07;;;;;;;2.47;1.67;;;;;;;;;;5076353;28;20043;-73
2022/10/07 12:43:33;;;;;;;4.72;2.00;;;;;;;;;;5076485;28;20115;-73
2022/10/07 12:46:00;;;;;;;5.20;1.88;;;;;;;;;;5076197;28;20035;-73
2022/10/07 12:48:30;;;;;;;7.53;1.95;;;;;;;;;;5075786;28;20148;-73
2022/10/07 12:50:56;;;;;;;3.95;1.90;;;;;;;;;;5076110;28;20063;-73
2022/10/07 12:53:24;;;;;;;5.88;2.08;;;;;;;;;;5075782;28;20040;-73
2022/10/07 12:55:52;;;;;;;6.20;2.05;;;;;;;;;;5075650;28;20503;-73
2022/10/07 13:01:18;;;;;;;6.55;1.98;;;;;;;;;;5075426;28;20035;-73
2022/10/07 13:04:02;;;;;;;10.32;2.10;;;;;;;;;;5076018;28;20044;-73
2022/10/07 13:06:31;;;;;;;4.75;1.95;;;;;;;;;;5076073;28;20040;-73
2022/10/07 13:09:06;;;;;;;9.68;2.22;;;;;;;;;;5075379;28;20048;-73
2022/10/07 13:11:51;;;;;;;6.30;1.98;;;;;;;;;;5075974;28;20043;-73
2022/10/07 13:14:36;;;;;;;3.65;2.30;;;;;;;;;;5075695;28;20048;-73
2022/10/07 13:17:21;;;;;;;6.03;2.20;;;;;;;;;;5075279;28;20039;-73
2022/10/07 13:19:47;;;;;;;5.38;2.30;;;;;;;;;;5075673;28;20123;-73
2022/10/07 13:22:13;;;;;;;11.80;2.53;;;;;;;;;;5075065;28;20051;-73
2022/10/07 13:24:41;;;;;;;8.68;2.30;;;;;;;;;;5075290;28;20039;-73
2022/10/07 13:27:11;;;;;;;7.40;2.70;;;;;;;;;;5075939;28;20545;-73
2022/10/07 13:29:38;;;;;;;12.02;2.63;;;;;;;;;;5074969;28;20037;-73
2022/10/07 13:32:24;;;;;;;12.27;3.30;;;;;;;;;;5075308;28;20105;-73
2022/10/07 13:34:51;;;;;;;8.13;2.97;;;;;;;;;;5075062;28;20040;-73
2022/10/07 13:37:20;;;;;;;12.40;2.90;;;;;;;;;;5074511;28;20391;-73
2022/10/07 13:39:46;;;;;;;9.75;2.83;;;;;;;;;;5075159;28;20495;-73
2022/10/07 13:42:13;;;;;;;9.18;3.25;;;;;;;;;;5075226;28;20040;-73
2022/10/07 13:44:42;;;;;;;7.22;2.92;;;;;;;;;;5074986;28;20113;-73
2022/10/07 13:47:16;;;;;;;8.90;4.10;;;;;;;;;;5074945;28;20075;-73
2022/10/07 13:49:44;;;;;;;11.15;3.20;;;;;;;;;;5075045;28;20055;-73
2022/10/07 13:52:39;;;;;;;10.27;2.85;;;;;;;;;;5075242;28;20044;-73
2022/10/07 13:55:24;;;;;;;8.00;3.20;;;;;;;;;;5065761;28;20530;-73
2022/10/07 13:57:50;;;;;;;9.77;4.47;;;;;;;;;;5075074;28;20047;-73
2022/10/07 14:00:16;;;;;;;8.77;3.05;;;;;;;;;;5075412;28;20048;-73
2022/10/07 14:02:44;;;;;;;7.25;2.97;;;;;;;;;;5074172;28;20114;-73
2022/10/07 14:05:18;;;;;;;17.88;11.88;;;;;;;;;;5074700;28;20083;-73
2022/10/07 14:07:44;;;;;;;14.02;4.50;;;;;;;;;;5074425;28;20052;-72
2022/10/07 14:10:12;;;;;;;13.35;3.78;;;;;;;;;;5074691;28;20549;-73
2022/10/07 14:12:43;;;;;;;14.32;3.88;;;;;;;;;;5074150;28;20036;-73
2022/10/07 14:15:09;;;;;;;;;;;;;;;;;;5074942;28;20487;-72
2022/10/07 14:17:38;;;;;;;11.15;3.65;;;;;;;;;;5074879;28;19955;-73
2022/10/07 14:20:06;;;;;;;7.43;2.90;;;;;;;;;;5074569;28;20044;-73
2022/10/07 14:22:40;;;;;;;8.98;2.90;;;;;;;;;;5075025;28;20036;-73
2022/10/07 14:25:15;;;;;;;8.52;2.88;;;;;;;;;;5074261;28;20411;-73
2022/10/07 14:28:01;;;;;;;11.25;2.47;;;;;;;;;;5074345;28;20045;-73
2022/10/07 14:35:16;;;;;;;6.72;2.80;;;;;;;;;;5074610;28;20426;-72
2022/10/07 14:36:08;;;;;;;7.55;2.83;;;;;;;;;;5074178;28;20039;-73
2022/10/07 14:38:35;;;;;;;6.25;2.72;;;;;;;;;;5074043;28;20037;-73
2022/10/07 14:41:01;;;;;;;7.55;2.50;;;;;;;;;;5074139;28;20037;-74
2022/10/07 14:43:30;;;;;;;6.63;2.63;;;;;;;;;;5074665;28;20483;-73
2022/10/07 14:45:56;;;;;;;13.60;2.92;;;;;;;;;;5074317;28;20487;-73
2022/10/07 14:48:22;;;;;;;10.20;2.92;;;;;;;;;;5074167;28;20036;-73
2022/10/07 14:50:50;;;;;;;10.18;2.70;;;;;;;;;;5074300;28;20056;-73
2022/10/07 14:53:16;;;;;;;7.28;2.88;;;;;;;;;;5073982;28;20036;-73
2022/10/07 14:55:42;;;;;;;7.80;2.92;;;;;;;;;;5074458;28;20045;-74
2022/10/07 14:58:10;;;;;;;10.52;2.75;;;;;;;;;;5074046;28;20113;-73
2022/10/07 15:00:37;;;;;;;8.90;2.67;;;;;;;;;;5072829;28;20115;-73
2022/10/07 15:03:03;;;;;;;10.68;2.90;;;;;;;;;;5074250;28;20040;-76
2022/10/07 15:05:31;;;;;;;7.40;2.40;;;;;;;;;;5074668;28;20041;-72
2022/10/07 15:07:57;;;;;;;8.65;2.60;;;;;;;;;;5073932;28;20095;-72